Ana Sayfa
METAR-TAF:

METAR-TAF

Havaalanları :

Pattaya-Rayong, Tayland

Enlem: 12-38N, Boylam: 101-21E, yükseklik: 3 m

Güncel hava durumu gözlemi

Rapor saat 19:30 UTC de 10 dakika önce yapıldı.
Rüzgar kuzeydan 5 kt
Sıcaklık 21°C
Nem 73%
Basınç 1012 hPa
Görüş mesafesi: 7000 m

METAR: VTBU 101930Z 36005KT 7000 NSC 21/16 Q1012 NOSIG

Saat: 02:40 (19:40 UTC)

Tahmin

Rapor saat 17:00 UTC de 2 saat ve 40 dakika önce yapıldı.
Ayın 10'si saat 18 UTC'den ayın 11'si saat 18 UTC'ye kadar geçerli Tahmin
Rüzgar kuzeydan 4 kt
Görüş mesafesi: 7000 m
Dönüşüyor
ayın 11'si saat 04 UTC'den ayın 11'si saat 06 UTC'ye kadar
Rüzgar güneydan 8 kt
Görüş mesafesi 10 km veya daha fazla
2500 ft yükseklikte az bulutlu
Dönüşüyor
ayın 11'si saat 10 UTC'den ayın 11'si saat 12 UTC'ye kadar
Rüzgar kuzey/kuzeybatıdan 6 kt
Görüş mesafesi: 8000 m

TAF: VTBU 101700Z 1018/1118 01004KT 7000 NSC BECMG 1104/1106 18008KT 9999 FEW025 BECMG 1110/1112 34006KT 8000 NSC

4.000'den fazla havaalanı için hava durumu gözlemleri ve tahminleri (METAR ve TAF raporları).

Kullanılabilir istasyonlar harita üzerinde sarı ve kırmızı noktalarla gösterilir.

İstasyonun adını görmek için fareyi noktanın üzerinde gezdirin.

Sonrasında hava gözlem ve tahminlerini görmek için tıklayın.

Haritayı değiştirmek için: yaklaştırmak için siyah artı işaretli yeşil düğmeye ve uzaklaştırmak için de eksi işaretli düğmeye hızla tıklayın; bitişik haritalar için yeşil okları kullanın.


METAR-TAF: